createdAt,value
2022-10-22T00:00:42.982Z,23.00
2022-10-22T00:03:12.035Z,24.03
2022-10-22T00:05:41.031Z,23.67
2022-10-22T00:08:11.553Z,22.00
2022-10-22T00:10:40.580Z,24.40
2022-10-22T00:13:09.787Z,23.30
2022-10-22T00:15:39.039Z,25.10
2022-10-22T00:18:08.123Z,22.47
2022-10-22T00:20:37.719Z,23.43
2022-10-22T00:23:06.908Z,21.97
2022-10-22T00:25:37.876Z,21.97
2022-10-22T00:28:07.078Z,24.63
2022-10-22T00:30:35.995Z,20.73
2022-10-22T00:33:05.137Z,23.57
2022-10-22T00:35:34.780Z,23.57
2022-10-22T00:38:03.901Z,23.50
2022-10-22T00:40:33.130Z,22.90
2022-10-22T00:43:03.760Z,21.40
2022-10-22T00:45:33.068Z,21.87
2022-10-22T00:48:06.107Z,20.87
2022-10-22T00:50:37.689Z,21.80
2022-10-22T00:53:11.672Z,24.57
2022-10-22T00:55:41.992Z,20.87
2022-10-22T00:58:14.296Z,21.57
2022-10-22T01:00:44.110Z,23.83
2022-10-22T01:03:13.277Z,21.80
2022-10-22T01:05:46.026Z,21.50
2022-10-22T01:08:24.139Z,25.43
2022-10-22T01:11:04.658Z,20.57
2022-10-22T01:13:46.354Z,22.17
2022-10-22T01:16:21.580Z,22.40
2022-10-22T01:19:00.252Z,20.47
2022-10-22T01:21:35.664Z,22.97
2022-10-22T01:24:24.962Z,22.37
2022-10-22T01:27:05.408Z,21.47
2022-10-22T01:29:42.500Z,21.60
2022-10-22T01:32:15.798Z,21.50
2022-10-22T01:34:48.349Z,24.23
2022-10-22T01:37:19.476Z,20.27
2022-10-22T01:39:49.673Z,21.50
2022-10-22T01:42:18.903Z,21.00
2022-10-22T01:44:50.451Z,22.00
2022-10-22T01:47:30.682Z,25.10
2022-10-22T01:50:27.220Z,22.63
2022-10-22T01:53:19.431Z,19.50
2022-10-22T01:56:05.964Z,20.50
2022-10-22T01:58:44.921Z,23.40
2022-10-22T02:01:23.371Z,20.47
2022-10-22T02:03:58.770Z,22.27
2022-10-22T02:06:31.217Z,21.00
2022-10-22T02:09:02.288Z,21.90
2022-10-22T02:11:31.868Z,21.33
2022-10-22T02:14:05.214Z,21.50
2022-10-22T02:16:39.995Z,21.00
2022-10-22T02:19:16.084Z,20.80
2022-10-22T02:21:45.964Z,22.80
2022-10-22T02:24:15.701Z,20.70
2022-10-22T02:26:53.633Z,22.20
2022-10-22T02:29:28.297Z,21.63
2022-10-22T02:32:02.813Z,27.87
2022-10-22T02:34:33.599Z,21.73
2022-10-22T02:37:04.993Z,19.97
2022-10-22T02:39:34.755Z,24.03
2022-10-22T02:42:04.981Z,22.53
2022-10-22T02:44:34.482Z,21.33
2022-10-22T02:47:07.552Z,21.20
2022-10-22T02:49:36.886Z,23.23
2022-10-22T02:52:05.936Z,21.47
2022-10-22T02:54:35.041Z,21.27
2022-10-22T02:57:04.355Z,22.43
2022-10-22T02:59:33.293Z,22.17
2022-10-22T03:02:02.312Z,21.10
2022-10-22T03:04:32.754Z,23.33
2022-10-22T03:07:01.883Z,23.53
2022-10-22T03:09:31.161Z,21.47
2022-10-22T03:12:00.100Z,21.83
2022-10-22T03:14:29.193Z,20.47
2022-10-22T03:16:58.262Z,21.07
2022-10-22T03:19:27.460Z,20.83
2022-10-22T03:22:02.070Z,21.27
2022-10-22T03:24:36.196Z,21.97
2022-10-22T03:27:05.401Z,22.90
2022-10-22T03:29:37.901Z,21.50
2022-10-22T03:32:07.391Z,24.97
2022-10-22T03:34:36.519Z,21.80
2022-10-22T03:37:07.294Z,22.23
2022-10-22T03:39:37.876Z,21.57
2022-10-22T03:42:07.858Z,21.60
2022-10-22T03:44:38.645Z,22.00
2022-10-22T03:47:08.442Z,20.80
2022-10-22T03:49:38.006Z,21.33
2022-10-22T03:52:09.681Z,21.33
2022-10-22T03:57:09.271Z,20.83
2022-10-22T03:59:40.212Z,20.20
2022-10-22T04:02:09.500Z,21.23
2022-10-22T04:04:39.240Z,20.43
2022-10-22T04:07:10.122Z,19.87
2022-10-22T04:09:39.533Z,20.67
2022-10-22T04:12:09.790Z,19.77
2022-10-22T04:14:41.378Z,20.33
2022-10-22T04:17:10.668Z,19.43
2022-10-22T04:19:40.419Z,20.03
2022-10-22T04:22:11.820Z,19.63
2022-10-22T04:24:41.450Z,20.80
2022-10-22T04:27:10.934Z,19.60
2022-10-22T04:29:40.582Z,19.20
2022-10-22T04:32:10.492Z,18.83
2022-10-22T04:34:40.261Z,20.37
2022-10-22T04:37:11.164Z,20.10
2022-10-22T04:39:42.001Z,18.03
2022-10-22T04:42:11.244Z,21.03
2022-10-22T04:44:40.529Z,19.33
2022-10-22T04:47:09.553Z,19.60
2022-10-22T04:49:38.658Z,18.93
2022-10-22T04:52:07.764Z,18.97
2022-10-22T04:54:38.233Z,18.33
2022-10-22T04:57:07.281Z,17.67
2022-10-22T04:59:36.532Z,18.40
2022-10-22T05:02:05.624Z,19.17
2022-10-22T05:04:34.588Z,18.83
2022-10-22T05:07:03.525Z,18.77
2022-10-22T05:09:32.531Z,18.77
2022-10-22T05:12:03.581Z,19.03
2022-10-22T05:14:32.792Z,17.63
2022-10-22T05:17:01.988Z,17.40
2022-10-22T05:19:33.313Z,19.23
2022-10-22T05:22:04.360Z,18.30
2022-10-22T05:24:34.848Z,19.43
2022-10-22T05:27:05.740Z,20.07
2022-10-22T05:29:34.815Z,18.17
2022-10-22T05:32:03.734Z,19.33
2022-10-22T05:34:33.628Z,18.73
2022-10-22T05:37:02.738Z,18.23
2022-10-22T05:39:31.770Z,17.90
2022-10-22T05:42:00.817Z,20.87
2022-10-22T05:44:31.373Z,19.20
2022-10-22T05:47:00.798Z,19.50
2022-10-22T05:49:29.922Z,19.37
2022-10-22T05:51:59.031Z,19.83
2022-10-22T05:54:28.185Z,19.40
2022-10-22T05:56:57.615Z,19.33
2022-10-22T05:59:27.251Z,19.27
2022-10-22T06:01:58.016Z,20.10
2022-10-22T06:04:27.333Z,19.17
2022-10-22T06:06:56.463Z,24.07
2022-10-22T06:09:28.815Z,18.73
2022-10-22T06:11:59.023Z,18.50
2022-10-22T06:14:28.952Z,21.37
2022-10-22T06:17:05.171Z,19.03
2022-10-22T06:19:34.541Z,18.83
2022-10-22T06:22:03.799Z,18.27
2022-10-22T06:24:32.930Z,19.00
2022-10-22T06:27:02.045Z,19.27
2022-10-22T06:29:31.316Z,19.13
2022-10-22T06:32:02.140Z,20.53
2022-10-22T06:34:31.495Z,18.37
2022-10-22T06:37:00.760Z,24.20
2022-10-22T06:39:29.960Z,18.03
2022-10-22T06:41:59.189Z,17.33
2022-10-22T06:44:35.405Z,18.90
2022-10-22T06:47:06.160Z,17.47
2022-10-22T06:49:35.203Z,18.37
2022-10-22T06:52:04.365Z,17.70
2022-10-22T06:54:33.608Z,20.13
2022-10-22T06:57:02.654Z,21.57
2022-10-22T06:59:31.963Z,17.70
2022-10-22T07:02:00.940Z,19.00
2022-10-22T07:04:31.474Z,17.67
2022-10-22T07:07:00.802Z,19.73
2022-10-22T07:09:30.192Z,17.60
2022-10-22T07:11:59.403Z,17.83
2022-10-22T07:14:28.443Z,17.30
2022-10-22T07:16:57.883Z,18.50
2022-10-22T07:19:27.038Z,17.10
2022-10-22T07:21:57.685Z,18.03
2022-10-22T07:24:26.913Z,18.40
2022-10-22T07:26:56.261Z,16.93
2022-10-22T07:29:25.355Z,20.90
2022-10-22T07:31:54.527Z,17.17
2022-10-22T07:34:23.558Z,17.07
2022-10-22T07:36:54.978Z,17.17
2022-10-22T07:39:26.439Z,16.83
2022-10-22T07:41:55.534Z,17.73
2022-10-22T07:44:24.693Z,17.33
2022-10-22T07:46:53.894Z,17.60
2022-10-22T07:49:23.213Z,20.30
2022-10-22T07:51:52.525Z,16.67
2022-10-22T07:54:21.743Z,19.07
2022-10-22T07:56:52.615Z,17.80
2022-10-22T07:59:22.045Z,17.37
2022-10-22T08:01:51.435Z,17.10
2022-10-22T08:04:20.623Z,17.10
2022-10-22T08:06:49.951Z,15.77
2022-10-22T08:09:19.010Z,16.93
2022-10-22T08:11:48.188Z,16.80
2022-10-22T08:14:18.988Z,17.33
2022-10-22T08:16:48.749Z,16.83
2022-10-22T08:19:21.427Z,16.77
2022-10-22T08:21:51.227Z,16.47
2022-10-22T08:24:20.548Z,17.77
2022-10-22T08:26:49.958Z,17.70
2022-10-22T08:29:21.966Z,17.13
2022-10-22T08:31:51.628Z,17.33
2022-10-22T08:34:21.193Z,19.17
2022-10-22T08:36:50.372Z,16.57
2022-10-22T08:39:19.676Z,16.93
2022-10-22T08:42:00.402Z,15.90
2022-10-22T08:44:52.759Z,18.60
2022-10-22T08:47:37.511Z,16.53
2022-10-22T08:50:11.063Z,16.00
2022-10-22T08:52:43.827Z,17.20
2022-10-22T08:55:17.170Z,15.43
2022-10-22T08:57:58.160Z,18.77
2022-10-22T09:00:36.791Z,17.70
2022-10-22T09:03:29.791Z,15.03
2022-10-22T09:06:07.511Z,18.20
2022-10-22T09:08:38.238Z,15.50
2022-10-22T09:11:17.550Z,16.50
2022-10-22T09:13:47.831Z,16.23
2022-10-22T09:16:21.561Z,15.50
2022-10-22T09:19:01.920Z,17.07
2022-10-22T09:21:39.280Z,18.33
2022-10-22T09:24:13.922Z,20.60
2022-10-22T09:26:43.842Z,16.80
2022-10-22T09:29:20.954Z,16.57
2022-10-22T09:31:51.970Z,20.27
2022-10-22T09:34:25.892Z,18.30
2022-10-22T09:37:00.325Z,19.67
2022-10-22T09:39:33.332Z,18.37
2022-10-22T09:42:02.764Z,20.00
2022-10-22T09:44:35.443Z,16.87
2022-10-22T09:47:08.656Z,18.97
2022-10-22T09:49:38.492Z,20.50
2022-10-22T09:52:29.196Z,18.60
2022-10-22T09:54:59.047Z,20.77
2022-10-22T09:57:32.012Z,21.13
2022-10-22T10:00:01.725Z,20.00
2022-10-22T10:02:43.361Z,20.53
2022-10-22T10:05:21.959Z,20.73
2022-10-22T10:07:51.160Z,23.93
2022-10-22T10:10:28.059Z,22.20
2022-10-22T10:13:04.217Z,21.90
2022-10-22T10:15:39.019Z,21.77
2022-10-22T10:18:23.169Z,22.53
2022-10-22T10:20:58.197Z,24.17
2022-10-22T10:23:33.429Z,24.07
2022-10-22T10:26:09.548Z,22.67
2022-10-22T10:28:54.607Z,22.87
2022-10-22T10:31:35.393Z,23.67
2022-10-22T10:34:16.546Z,21.53
2022-10-22T10:36:53.704Z,25.17
2022-10-22T10:39:30.283Z,20.70
2022-10-22T10:42:08.894Z,21.37
2022-10-22T10:44:50.623Z,22.33
2022-10-22T10:47:37.933Z,20.90
2022-10-22T10:50:22.575Z,22.10
2022-10-22T10:52:58.838Z,19.07
2022-10-22T10:55:33.116Z,19.47
2022-10-22T10:58:14.926Z,21.93
2022-10-22T11:00:53.824Z,21.03
2022-10-22T11:03:42.764Z,22.23
2022-10-22T11:06:16.839Z,22.80
2022-10-22T11:08:55.341Z,20.80
2022-10-22T11:11:31.732Z,20.17
2022-10-22T11:14:07.513Z,21.03
2022-10-22T11:16:44.523Z,20.97
2022-10-22T11:19:46.197Z,22.83
2022-10-22T11:22:25.805Z,25.33
2022-10-22T11:25:02.994Z,23.97
2022-10-22T11:27:38.068Z,22.63
2022-10-22T11:30:14.393Z,24.63
2022-10-22T11:32:46.222Z,22.20
2022-10-22T11:35:24.884Z,24.50
2022-10-22T11:37:58.083Z,24.37
2022-10-22T11:40:36.822Z,21.90
2022-10-22T11:43:08.241Z,20.63
2022-10-22T11:45:39.704Z,22.67
2022-10-22T11:48:19.193Z,25.27
2022-10-22T11:50:53.128Z,22.77
2022-10-22T11:53:32.941Z,21.90
2022-10-22T11:56:22.832Z,22.57
2022-10-22T11:58:54.642Z,21.13
2022-10-22T12:01:30.816Z,24.67
2022-10-22T12:04:22.224Z,23.07
2022-10-22T12:06:58.404Z,21.83
2022-10-22T12:09:33.001Z,23.77
2022-10-22T12:12:13.902Z,26.40
2022-10-22T12:14:55.541Z,21.07
2022-10-22T12:17:25.593Z,22.00
2022-10-22T12:20:03.068Z,24.47
2022-10-22T12:22:37.413Z,22.57
2022-10-22T12:25:20.251Z,22.77
2022-10-22T12:27:55.156Z,21.00
2022-10-22T12:30:27.080Z,23.00
2022-10-22T12:32:58.080Z,21.50
2022-10-22T12:35:30.027Z,21.17
2022-10-22T12:38:01.776Z,21.67
2022-10-22T12:40:36.575Z,22.20
2022-10-22T12:43:13.556Z,21.83
2022-10-22T12:45:45.542Z,21.63
2022-10-22T12:48:19.622Z,24.30
2022-10-22T12:50:52.014Z,26.80
2022-10-22T12:53:25.622Z,21.53
2022-10-22T12:56:00.942Z,24.27
2022-10-22T12:58:35.196Z,23.70
2022-10-22T13:01:04.553Z,24.93
2022-10-22T13:03:39.170Z,27.77
2022-10-22T13:06:15.819Z,21.37
2022-10-22T13:08:45.130Z,21.73
2022-10-22T13:11:15.707Z,21.90
2022-10-22T13:13:46.141Z,22.67
2022-10-22T13:16:20.892Z,22.97
2022-10-22T13:18:50.661Z,24.93
2022-10-22T13:21:34.601Z,21.93
2022-10-22T13:24:20.652Z,22.00
2022-10-22T13:26:53.721Z,24.03
2022-10-22T13:29:24.336Z,26.53
2022-10-22T13:31:54.890Z,23.13
2022-10-22T13:34:26.514Z,25.97
2022-10-22T13:36:55.991Z,26.47
2022-10-22T13:39:26.262Z,25.73
2022-10-22T13:41:56.991Z,25.80
2022-10-22T13:44:26.091Z,23.93
2022-10-22T13:46:56.533Z,28.87
2022-10-22T13:49:25.892Z,23.80
2022-10-22T13:51:55.192Z,27.03
2022-10-22T13:54:26.612Z,26.47
2022-10-22T13:56:57.231Z,25.17
2022-10-22T13:59:26.393Z,26.80
2022-10-22T14:01:57.385Z,25.43
2022-10-22T14:04:26.663Z,27.43
2022-10-22T14:06:57.701Z,25.13
2022-10-22T14:09:29.509Z,26.93
2022-10-22T14:12:00.164Z,28.83
2022-10-22T14:14:29.481Z,30.33
2022-10-22T14:16:58.932Z,27.30
2022-10-22T14:19:28.281Z,26.87
2022-10-22T14:21:57.633Z,28.10
2022-10-22T14:24:26.743Z,30.20
2022-10-22T14:26:55.912Z,27.17
2022-10-22T14:29:27.230Z,28.37
2022-10-22T14:31:56.593Z,29.27
2022-10-22T14:34:26.322Z,29.87
2022-10-22T14:36:55.852Z,25.40
2022-10-22T14:39:25.453Z,30.73
2022-10-22T14:41:55.042Z,28.67
2022-10-22T14:44:25.872Z,25.10
2022-10-22T14:46:56.565Z,31.13
2022-10-22T14:49:26.014Z,26.93
2022-10-22T14:51:55.184Z,27.43
2022-10-22T14:54:24.547Z,26.60
2022-10-22T14:56:53.746Z,30.57
2022-10-22T14:59:23.167Z,27.77
2022-10-22T15:01:53.975Z,30.93
2022-10-22T15:04:23.562Z,33.67
2022-10-22T15:06:56.713Z,28.17
2022-10-22T15:09:26.222Z,34.60
2022-10-22T15:11:55.536Z,33.03
2022-10-22T15:14:25.013Z,29.67
2022-10-22T15:16:55.949Z,32.63
2022-10-22T15:19:25.902Z,36.43
2022-10-22T15:21:55.441Z,31.47
2022-10-22T15:24:25.308Z,35.47
2022-10-22T15:26:55.436Z,34.00
2022-10-22T15:29:24.886Z,32.23
2022-10-22T15:31:58.295Z,31.47
2022-10-22T15:34:30.104Z,32.13
2022-10-22T15:37:01.296Z,31.70
2022-10-22T15:39:30.955Z,33.43
2022-10-22T15:42:00.878Z,31.17
2022-10-22T15:44:32.016Z,31.73
2022-10-22T15:47:06.972Z,33.90
2022-10-22T15:49:39.829Z,31.57
2022-10-22T15:52:10.343Z,35.00
2022-10-22T15:54:39.896Z,31.37
2022-10-22T15:57:11.238Z,32.23
2022-10-22T15:59:40.975Z,33.33
2022-10-22T16:02:13.820Z,34.03
2022-10-22T16:04:43.365Z,35.00
2022-10-22T16:07:12.996Z,34.37
2022-10-22T16:09:42.340Z,30.33
2022-10-22T16:12:15.282Z,30.93
2022-10-22T16:14:46.637Z,32.33
2022-10-22T16:17:17.927Z,29.87
2022-10-22T16:19:47.654Z,31.87
2022-10-22T16:22:17.130Z,28.73
2022-10-22T16:24:46.766Z,32.70
2022-10-22T16:27:16.403Z,36.70
2022-10-22T16:29:46.086Z,34.33
2022-10-22T16:32:17.870Z,35.43
2022-10-22T16:34:47.731Z,31.37
2022-10-22T16:37:17.539Z,30.57
2022-10-22T16:39:50.231Z,33.00
2022-10-22T16:42:19.835Z,31.03
2022-10-22T16:44:49.547Z,35.70
2022-10-22T16:47:20.836Z,36.40
2022-10-22T16:49:50.606Z,35.00
2022-10-22T16:52:20.500Z,33.10
2022-10-22T16:54:50.075Z,34.60
2022-10-22T16:57:19.697Z,35.80
2022-10-22T16:59:50.557Z,35.03
2022-10-22T17:02:22.676Z,37.77
2022-10-22T17:04:52.375Z,36.30
2022-10-22T17:07:21.909Z,35.77
2022-10-22T17:09:51.380Z,36.93
2022-10-22T17:12:21.586Z,36.87
2022-10-22T17:14:51.483Z,39.43
2022-10-22T17:17:22.363Z,38.83
2022-10-22T17:19:52.185Z,40.87
2022-10-22T17:22:21.953Z,40.57
2022-10-22T17:25:13.133Z,38.57
2022-10-22T17:27:43.939Z,45.63
2022-10-22T17:30:19.234Z,42.67
2022-10-22T17:32:52.742Z,41.50
2022-10-22T17:35:22.233Z,42.70
2022-10-22T17:37:52.433Z,45.87
2022-10-22T17:40:22.642Z,40.80
2022-10-22T17:42:53.442Z,42.73
2022-10-22T17:45:23.401Z,45.53
2022-10-22T17:47:54.962Z,45.67
2022-10-22T17:50:25.442Z,44.77
2022-10-22T17:52:55.914Z,41.50
2022-10-22T17:55:26.082Z,45.07
2022-10-22T17:57:56.016Z,43.30
2022-10-22T18:00:26.035Z,48.17
2022-10-22T18:02:57.891Z,40.47
2022-10-22T18:05:31.140Z,46.20
2022-10-22T18:08:04.378Z,46.53
2022-10-22T18:10:41.870Z,47.80
2022-10-22T18:13:11.610Z,47.27
2022-10-22T18:15:41.390Z,45.60
2022-10-22T18:18:14.448Z,48.43
2022-10-22T18:20:44.181Z,50.40
2022-10-22T18:23:15.111Z,45.27
2022-10-22T18:25:44.853Z,46.20
2022-10-22T18:28:15.632Z,46.13
2022-10-22T18:30:46.060Z,48.67
2022-10-22T18:33:18.993Z,48.03
2022-10-22T18:35:49.084Z,50.97
2022-10-22T18:38:22.347Z,51.50
2022-10-22T18:40:52.350Z,48.47
2022-10-22T18:43:21.892Z,47.73
2022-10-22T18:45:51.446Z,48.70
2022-10-22T18:48:23.611Z,50.80
2022-10-22T18:51:01.860Z,46.43
2022-10-22T18:53:31.591Z,42.50
2022-10-22T18:56:01.312Z,43.03
2022-10-22T18:58:30.966Z,41.83
2022-10-22T19:01:00.713Z,38.03
2022-10-22T19:03:32.063Z,39.30
2022-10-22T19:06:01.911Z,41.73
2022-10-22T19:08:35.291Z,40.27
2022-10-22T19:11:11.493Z,38.93
2022-10-22T19:13:41.700Z,36.70
2022-10-22T19:16:14.291Z,37.87
2022-10-22T19:18:45.132Z,37.60
2022-10-22T19:21:14.457Z,37.73
2022-10-22T19:26:21.842Z,36.70
2022-10-22T19:28:51.383Z,37.80
2022-10-22T19:31:22.821Z,35.50
2022-10-22T19:33:55.072Z,34.20
2022-10-22T19:36:25.559Z,33.10
2022-10-22T19:38:55.183Z,31.80
2022-10-22T19:41:27.062Z,31.20
2022-10-22T19:43:58.291Z,31.57
2022-10-22T19:46:29.317Z,29.43
2022-10-22T19:49:00.509Z,29.87
2022-10-22T19:51:31.462Z,30.63
2022-10-22T19:54:02.051Z,28.97
2022-10-22T19:56:31.800Z,28.47
2022-10-22T19:59:01.255Z,27.20
2022-10-22T20:01:32.196Z,29.80
2022-10-22T20:04:02.978Z,29.80
2022-10-22T20:06:32.344Z,28.77
2022-10-22T20:09:01.880Z,28.10
2022-10-22T20:11:32.061Z,27.67
2022-10-22T20:14:01.303Z,25.83
2022-10-22T20:16:31.496Z,26.10
2022-10-22T20:19:05.417Z,24.80
2022-10-22T20:21:35.273Z,25.23
2022-10-22T20:24:05.555Z,24.60
2022-10-22T20:26:35.265Z,24.30
2022-10-22T20:29:05.187Z,23.87
2022-10-22T20:31:36.799Z,24.60
2022-10-22T20:34:07.901Z,26.33
2022-10-22T20:36:37.677Z,25.97
2022-10-22T20:39:09.686Z,27.93
2022-10-22T20:41:41.144Z,25.37
2022-10-22T20:44:15.186Z,23.73
2022-10-22T20:46:44.573Z,23.73
2022-10-22T20:49:17.442Z,23.93
2022-10-22T20:51:47.270Z,24.20
2022-10-22T20:54:17.773Z,23.73
2022-10-22T20:56:49.060Z,24.63
2022-10-22T20:59:18.809Z,24.40
2022-10-22T21:01:50.518Z,22.07
2022-10-22T21:04:22.929Z,21.97
2022-10-22T21:06:53.102Z,22.23
2022-10-22T21:09:23.078Z,21.90
2022-10-22T21:14:27.618Z,20.63
2022-10-22T21:16:56.849Z,19.43
2022-10-22T21:19:27.650Z,19.73
2022-10-22T21:21:57.011Z,18.97
2022-10-22T21:24:26.709Z,19.77
2022-10-22T21:26:55.719Z,19.40
2022-10-22T21:29:24.858Z,18.60
2022-10-22T21:31:54.977Z,19.07
2022-10-22T21:34:24.126Z,19.33
2022-10-22T21:36:54.654Z,19.13
2022-10-22T21:39:23.693Z,20.43
2022-10-22T21:41:52.848Z,19.10
2022-10-22T21:44:21.924Z,20.83
2022-10-22T21:46:51.029Z,19.27
2022-10-22T21:49:20.347Z,19.67
2022-10-22T21:51:49.760Z,19.67
2022-10-22T21:54:20.331Z,19.67
2022-10-22T21:56:50.408Z,22.40
2022-10-22T21:59:19.586Z,18.43
2022-10-22T22:01:49.016Z,19.93
2022-10-22T22:04:18.270Z,18.07
2022-10-22T22:06:47.421Z,19.97
2022-10-22T22:09:16.558Z,18.70
2022-10-22T22:11:47.070Z,18.77
2022-10-22T22:14:16.140Z,20.77
2022-10-22T22:16:45.302Z,20.13
2022-10-22T22:19:14.486Z,21.17
2022-10-22T22:21:43.662Z,20.27
2022-10-22T22:24:14.703Z,20.77
2022-10-22T22:26:44.296Z,19.33
2022-10-22T22:29:15.425Z,20.53
2022-10-22T22:31:46.191Z,21.40
2022-10-22T22:34:16.875Z,20.23
2022-10-22T22:36:48.284Z,20.57
2022-10-22T22:39:19.919Z,23.40
2022-10-22T22:41:49.358Z,22.60
2022-10-22T22:44:19.979Z,21.03
2022-10-22T22:46:49.051Z,22.90
2022-10-22T22:49:18.939Z,22.33
2022-10-22T22:51:47.981Z,22.83
2022-10-22T22:54:17.074Z,23.00
2022-10-22T22:56:46.101Z,21.97
2022-10-22T22:59:15.150Z,24.20
2022-10-22T23:01:45.712Z,23.53
2022-10-22T23:04:16.620Z,22.47
2022-10-22T23:06:45.834Z,24.70
2022-10-22T23:09:16.967Z,25.10
2022-10-22T23:11:47.314Z,22.23
2022-10-22T23:14:17.975Z,20.93
2022-10-22T23:16:50.403Z,21.43
2022-10-22T23:19:21.623Z,21.60
2022-10-22T23:21:52.718Z,22.77
2022-10-22T23:24:25.199Z,22.33
2022-10-22T23:26:56.218Z,23.37
2022-10-22T23:29:28.056Z,20.40
2022-10-22T23:32:02.157Z,23.20
2022-10-22T23:34:32.369Z,19.87
2022-10-22T23:37:01.783Z,20.27
2022-10-22T23:39:31.736Z,19.47
2022-10-22T23:42:00.991Z,21.07
2022-10-22T23:44:30.167Z,20.37
2022-10-22T23:47:00.680Z,20.77
2022-10-22T23:49:29.846Z,21.83
2022-10-22T23:51:59.180Z,20.67
2022-10-22T23:54:28.444Z,20.37
2022-10-22T23:56:57.656Z,23.93
2022-10-22T23:59:26.936Z,21.30
